This is the latest recevied weather packets stored in our database for station/object M0HPP-13. If no packets are shown the sender has not sent any weather packets the latest 10 day(s).
| Time | Temp. | Humidity | Pressure | Rain* | Wind** | Luminosity | Snow |
|---|---|---|---|---|---|---|---|
| 1788016686 | 15° C | 90% | 1003.7 hPa | 0 mm | - | 209 W/m² | - |
| 1788016086 | 15.56° C | 88% | 1003.7 hPa | 0 mm | - | 182 W/m² | - |
| 1788015486 | 16.11° C | 85% | 1003.8 hPa | 0 mm | - | 146 W/m² | - |
| 1788014886 | 16.11° C | 85% | 1003.8 hPa | 0 mm | - | 138 W/m² | - |
| 1788014286 | 15.56° C | 86% | 1003.8 hPa | 0 mm | - | 109 W/m² | - |
| 1788013686 | 15.56° C | 87% | 1003.7 hPa | 0 mm | - | 102 W/m² | - |
| 1788013086 | 15° C | 89% | 1003.7 hPa | 0 mm | - | 79 W/m² | - |
| 1788011286 | 14.44° C | 94% | 1003.7 hPa | 0 mm | - | 91 W/m² | - |
| 1788010686 | 13.89° C | 94% | 1003.7 hPa | 0 mm | - | 52 W/m² | - |
| 1788010086 | 13.89° C | 93% | 1003.7 hPa | 0 mm | - | 42 W/m² | - |
| 1788009486 | 14.44° C | 91% | 1003.7 hPa | 0 mm | - | 34 W/m² | - |
| 1788008886 | 14.44° C | 90% | 1003.6 hPa | 0 mm | - | 45 W/m² | - |
| 1788008286 | 14.44° C | 91% | 1003.7 hPa | 0 mm | - | 46 W/m² | - |
| 1788007686 | 14.44° C | 91% | 1003.6 hPa | 0 mm | - | 41 W/m² | - |
| 1788007086 | 14.44° C | 89% | 1003.5 hPa | 0 mm | - | 37 W/m² | - |
| 1788006486 | 15° C | 86% | 1003.4 hPa | 0 mm | - | 48 W/m² | - |
| 1788005886 | 15.56° C | 84% | 1003.2 hPa | 0 mm | - | 74 W/m² | - |
| 1788005286 | 15.56° C | 84% | 1003.2 hPa | 0 mm | - | 102 W/m² | - |
| 1788004686 | 16.11° C | 82% | 1003.3 hPa | 0 mm | - | 141 W/m² | - |
| 1788004086 | 16.11° C | 84% | 1003.2 hPa | 0 mm | - | 147 W/m² | - |
| 1788003486 | 15° C | 88% | 1003.2 hPa | 0 mm | - | 285 W/m² | - |
| 1788002886 | 15.56° C | 87% | 1003.3 hPa | 0 mm | - | 166 W/m² | - |
| 1788002286 | 15.56° C | 87% | 1003.2 hPa | 0 mm | - | 208 W/m² | - |
| 1788001686 | 15° C | 89% | 1003.3 hPa | 0 mm | - | 87 W/m² | - |
| 1788001086 | 16.11° C | 84% | 1003.2 hPa | 0 mm | - | 139 W/m² | - |
* Rain latest hour (hover to see other rain measurements)
** Current wind speed in m/s (hover to see current wind gust speed)